Time;durP1;ratioP1;P1;durP2;ratioP2;P2;SDS_P1;SDS_P2;PMS_P1;PMS_P2;Temp;Humidity;BMP_temperature;BMP_pressure;BME280_temperature;BME280_humidity;BME280_pressure;Samples;Min_cycle;Max_cycle;Signal;HPM_P1;HPM_P2
2022/05/29 00:00:11;;;;;;;;;;;;;;;18.85;80.42;99214.16;4978417;28;19925;-83
2022/05/29 00:02:37;;;;;;;;;;;;;;;18.89;79.37;99202.34;4972756;28;19922;-83
2022/05/29 00:05:03;;;;;;;;;;;;;;;19.09;79.19;99209.22;4970915;28;19920;-83
2022/05/29 00:07:28;;;;;;;;;;;;;;;19.17;78.68;99208.78;4970630;28;19918;-83
2022/05/29 00:09:53;;;;;;;;;;;;;;;19.31;77.80;99205.28;4981523;28;20080;-83
2022/05/29 00:12:20;;;;;;;;;;;;;;;19.22;77.93;99200.47;4988730;28;20402;-84
2022/05/29 00:14:47;;;;;;;;;;;;;;;19.33;77.20;99187.34;4989423;28;20328;-84
2022/05/29 00:17:13;;;;;;;;;;;;;;;19.47;77.25;99170.47;4988528;28;20028;-83
2022/05/29 00:19:39;;;;;;;;;;;;;;;19.37;78.09;99167.50;4972348;28;20700;-83
2022/05/29 00:22:05;;;;;;;;;;;;;;;19.49;77.45;99160.53;4988555;28;19928;-83
2022/05/29 00:24:30;;;;;;;;;;;;;;;19.33;77.99;99139.19;4989674;28;19921;-83
2022/05/29 00:26:55;;;;;;;;;;;;;;;19.45;77.26;99105.50;4988847;28;19917;-83
2022/05/29 00:29:21;;;;;;;;;;;;;;;19.54;77.06;99110.31;4988841;28;19992;-83
2022/05/29 00:31:46;;;;;;;;;;;;;;;19.49;76.43;99137.34;4988944;28;20035;-83
2022/05/29 00:34:12;;;;;;;;;;;;;;;19.35;78.12;99156.00;4989486;28;19918;-83
2022/05/29 00:36:38;;;;;;;;;;;;;;;19.40;77.67;99148.59;4986048;28;19917;-83
2022/05/29 00:39:04;;;;;;;;;;;;;;;19.56;77.14;99153.00;4982191;28;20004;-83
2022/05/29 00:41:31;;;;;;;;;;;;;;;19.70;76.28;99153.00;4967933;28;20068;-83
2022/05/29 00:44:14;;;;;;;;;;;;;;;19.82;75.38;99151.44;4968729;28;19945;-83
2022/05/29 00:46:43;;;;;;;;;;;;;;;19.97;76.07;99144.25;4973628;28;20450;-83
2022/05/29 00:49:09;;;;;;;;;;;;;;;20.06;75.12;99148.19;4988505;28;20033;-83
2022/05/29 00:51:37;;;;;;;;;;;;;;;20.01;75.14;99148.47;4983880;28;19921;-83
2022/05/29 00:54:04;;;;;;;;;;;;;;;19.89;75.49;99157.28;4969620;28;19922;-83
2022/05/29 00:56:29;;;;;;;;;;;;;;;19.74;76.22;99146.53;4978500;28;19922;-83
2022/05/29 00:58:57;;;;;;;;;;;;;;;19.61;76.05;99135.69;4983321;28;20722;-83
2022/05/29 01:01:22;;;;;;;;;;;;;;;19.63;75.97;99111.53;4971035;28;19922;-84
2022/05/29 01:03:47;;;;;;;;;;;;;;;19.77;75.59;99087.50;4970025;28;20367;-83
2022/05/29 01:06:13;;;;;;;;;;;;;;;19.64;75.59;99087.38;4985212;28;20391;-83
2022/05/29 01:08:38;;;;;;;;;;;;;;;19.57;75.12;99087.84;4976635;28;19918;-83
2022/05/29 01:11:10;;;;;;;;;;;;;;;19.32;76.23;99102.72;4969466;28;19940;-84
2022/05/29 01:13:53;;;;;;;;;;;;;;;19.26;77.54;99130.69;4988943;28;19928;-83
2022/05/29 01:16:31;;;;;;;;;;;;;;;19.44;76.85;99126.03;4986556;28;19943;-84
2022/05/29 01:18:56;;;;;;;;;;;;;;;19.46;75.84;99140.19;4989196;28;20020;-83
2022/05/29 01:21:21;;;;;;;;;;;;;;;19.37;77.11;99151.44;4985726;28;20033;-83
2022/05/29 01:24:11;;;;;;;;;;;;;;;19.43;76.32;99147.53;4971200;28;19991;-84
2022/05/29 01:26:58;;;;;;;;;;;;;;;19.37;76.33;99137.19;4969270;28;19922;-83
2022/05/29 01:29:32;;;;;;;;;;;;;;;19.44;75.68;99127.84;4969157;28;20013;-83
2022/05/29 01:32:02;;;;;;;;;;;;;;;19.61;74.59;99137.53;4968971;28;19928;-84
2022/05/29 01:34:30;;;;;;;;;;;;;;;19.53;74.26;99143.34;4969207;28;19918;-84
2022/05/29 01:37:05;;;;;;;;;;;;;;;19.45;73.14;99148.31;4951859;28;19973;-83
2022/05/29 01:39:49;;;;;;;;;;;;;;;19.30;73.68;99156.28;4968906;28;19921;-83
2022/05/29 01:42:33;;;;;;;;;;;;;;;19.51;72.42;99163.97;4958619;28;20487;-83
2022/05/29 01:45:04;;;;;;;;;;;;;;;19.58;72.60;99176.00;4952132;28;19959;-83
2022/05/29 01:47:48;;;;;;;;;;;;;;;19.58;71.38;99186.72;4978371;28;20227;-83
2022/05/29 01:50:18;;;;;;;;;;;;;;;19.83;69.69;99191.50;4988310;28;19984;-83
2022/05/29 01:52:52;;;;;;;;;;;;;;;19.80;70.41;99204.19;4977249;28;19921;-83
2022/05/29 01:55:25;;;;;;;;;;;;;;;19.79;70.74;99207.81;4980207;28;19921;-83
2022/05/29 01:57:52;;;;;;;;;;;;;;;19.71;70.63;99194.88;4988400;28;20324;-83
2022/05/29 02:00:19;;;;;;;;;;;;;;;19.89;70.22;99190.22;4986609;28;19922;-83
2022/05/29 02:02:49;;;;;;;;;;;;;;;19.97;69.78;99181.72;4986695;28;20463;-83
2022/05/29 02:05:16;;;;;;;;;;;;;;;19.87;69.29;99176.09;4988121;28;19945;-83
2022/05/29 02:07:49;;;;;;;;;;;;;;;20.01;68.82;99167.22;4988513;28;20416;-82
2022/05/29 02:10:20;;;;;;;;;;;;;;;19.90;68.97;99138.44;4986764;28;19929;-83
2022/05/29 02:12:51;;;;;;;;;;;;;;;19.79;70.28;99135.56;4987545;28;20022;-82
2022/05/29 02:15:18;;;;;;;;;;;;;;;19.62;71.26;99158.00;4987753;28;19925;-83
2022/05/29 02:17:46;;;;;;;;;;;;;;;19.71;72.25;99184.19;4973737;28;19932;-83
2022/05/29 02:20:22;;;;;;;;;;;;;;;19.89;71.33;99200.94;4991515;28;19918;-83
2022/05/29 02:22:48;;;;;;;;;;;;;;;19.40;73.49;99214.56;5003623;28;19928;-83
2022/05/29 02:25:15;;;;;;;;;;;;;;;19.14;75.33;99233.84;5007678;28;19924;-83
2022/05/29 02:27:40;;;;;;;;;;;;;;;18.91;77.49;99235.19;5007577;28;19983;-83
2022/05/29 02:30:06;;;;;;;;;;;;;;;19.09;76.59;99216.34;4992860;28;20395;-83
2022/05/29 02:32:31;;;;;;;;;;;;;;;19.20;76.20;99213.94;4987865;28;20004;-83
2022/05/29 02:35:06;;;;;;;;;;;;;;;18.98;77.22;99240.16;4990335;28;19918;-83
2022/05/29 02:37:34;;;;;;;;;;;;;;;19.14;76.54;99235.69;4991886;28;19919;-83
2022/05/29 02:40:14;;;;;;;;;;;;;;;19.21;75.82;99229.00;5004362;28;19987;-83
2022/05/29 02:42:46;;;;;;;;;;;;;;;19.41;74.53;99201.09;5011267;28;19917;-83
2022/05/29 02:45:26;;;;;;;;;;;;;;;19.64;73.63;99198.88;5011286;28;21421;-83
2022/05/29 02:47:58;;;;;;;;;;;;;;;19.86;72.51;99195.78;5007443;28;20421;-84
2022/05/29 02:50:23;;;;;;;;;;;;;;;19.80;73.48;99202.38;4991771;28;20032;-84
2022/05/29 02:52:51;;;;;;;;;;;;;;;19.86;73.84;99222.53;5010455;28;19996;-83
2022/05/29 02:55:17;;;;;;;;;;;;;;;20.02;74.69;99239.38;5011177;28;20418;-83
2022/05/29 02:57:42;;;;;;;;;;;;;;;19.94;75.23;99268.44;5011163;28;19959;-82
2022/05/29 03:00:11;;;;;;;;;;;;;;;19.75;75.95;99289.19;5010824;28;20055;-82
2022/05/29 03:02:52;;;;;;;;;;;;;;;19.48;78.04;99303.25;5010163;28;19921;-81
2022/05/29 03:05:36;;;;;;;;;;;;;;;19.25;79.64;99289.38;5010334;28;20004;-81
2022/05/29 03:08:20;;;;;;;;;;;;;;;19.10;81.24;99260.84;5010930;28;19913;-82
2022/05/29 03:10:51;;;;;;;;;;;;;;;19.11;81.54;99257.25;5007485;28;19925;-83
2022/05/29 03:13:41;;;;;;;;;;;;;;;19.36;80.01;99245.97;4991235;28;19921;-83
2022/05/29 03:16:17;;;;;;;;;;;;;;;19.33;80.13;99227.44;4990698;28;19917;-81
2022/05/29 03:18:42;;;;;;;;;;;;;;;19.27;80.84;99187.69;4999974;28;19921;-81
2022/05/29 03:21:07;;;;;;;;;;;;;;;19.11;81.66;99185.06;4987480;28;19926;-81
2022/05/29 03:23:52;;;;;;;;;;;;;;;19.21;80.53;99207.63;4998366;28;19921;-83
2022/05/29 03:26:30;;;;;;;;;;;;;;;19.25;80.19;99227.03;5008064;28;19921;-82
2022/05/29 03:29:02;;;;;;;;;;;;;;;19.43;79.32;99233.09;5010259;28;20023;-81
2022/05/29 03:31:29;;;;;;;;;;;;;;;19.42;79.31;99236.75;5007565;28;19921;-82
2022/05/29 03:33:55;;;;;;;;;;;;;;;19.44;79.43;99211.63;4990539;28;19952;-81
2022/05/29 03:36:20;;;;;;;;;;;;;;;19.23;80.49;99202.19;4990512;28;19967;-82
2022/05/29 03:38:46;;;;;;;;;;;;;;;19.32;80.24;99201.63;4999867;28;20011;-82
2022/05/29 03:41:13;;;;;;;;;;;;;;;19.22;81.29;99206.69;5004759;28;19921;-83
2022/05/29 03:43:40;;;;;;;;;;;;;;;19.18;82.25;99196.25;5006926;28;19921;-82
2022/05/29 03:46:05;;;;;;;;;;;;;;;18.90;82.84;99182.66;5008756;28;19925;-82
2022/05/29 03:48:32;;;;;;;;;;;;;;;18.97;82.94;99185.88;4991335;28;19922;-82
2022/05/29 03:51:02;;;;;;;;;;;;;;;19.18;82.22;99161.50;4996293;28;19924;-82
2022/05/29 03:53:27;;;;;;;;;;;;;;;19.26;81.95;99132.50;5003317;28;19921;-82
2022/05/29 03:55:52;;;;;;;;;;;;;;;19.26;81.19;99132.50;4990842;28;19913;-82
2022/05/29 03:58:18;;;;;;;;;;;;;;;19.05;83.16;99145.34;4977574;28;19968;-82
2022/05/29 04:00:43;;;;;;;;;;;;;;;19.22;82.33;99147.00;5008239;28;19929;-83
2022/05/29 04:03:09;;;;;;;;;;;;;;;19.14;83.72;99142.13;5009763;28;20833;-82
2022/05/29 04:05:34;;;;;;;;;;;;;;;19.35;82.59;99139.09;5008901;28;19918;-82
2022/05/29 04:13:32;;;;;;;;;;;;;;;19.73;81.93;99144.81;5009205;28;19924;-81
2022/05/29 04:15:58;;;;;;;;;;;;;;;19.35;81.72;99147.13;5008635;28;19941;-81
2022/05/29 04:18:23;;;;;;;;;;;;;;;19.05;84.25;99131.97;5001545;28;19925;-81
2022/05/29 04:20:52;;;;;;;;;;;;;;;19.01;85.27;99130.41;5007680;28;19921;-81
2022/05/29 04:23:18;;;;;;;;;;;;;;;18.88;86.36;99146.31;4999638;28;19918;-82
2022/05/29 04:25:44;;;;;;;;;;;;;;;18.84;86.10;99134.88;5009369;28;19917;-82
2022/05/29 04:28:09;;;;;;;;;;;;;;;18.92;85.47;99121.13;5008513;28;19964;-81
2022/05/29 04:30:35;;;;;;;;;;;;;;;19.22;83.54;99131.81;5008126;28;19925;-82
2022/05/29 04:33:00;;;;;;;;;;;;;;;19.30;83.56;99134.03;4986011;28;20414;-82
2022/05/29 04:35:31;;;;;;;;;;;;;;;19.20;81.96;99119.47;4989712;28;19917;-82
2022/05/29 04:37:57;;;;;;;;;;;;;;;19.24;82.57;99113.00;5004578;28;20024;-81
2022/05/29 04:40:22;;;;;;;;;;;;;;;19.44;80.36;99109.13;5004541;28;20036;-83
2022/05/29 04:42:48;;;;;;;;;;;;;;;19.71;79.34;99103.91;4991072;28;20037;-82
2022/05/29 04:45:13;;;;;;;;;;;;;;;19.71;77.33;99098.56;4989537;28;20376;-82
2022/05/29 04:47:38;;;;;;;;;;;;;;;19.88;77.40;99102.00;5000912;28;19921;-82
2022/05/29 04:50:04;;;;;;;;;;;;;;;19.91;78.11;99108.06;5008269;28;20637;-82
2022/05/29 04:52:29;;;;;;;;;;;;;;;20.09;77.16;99105.16;4978982;28;20395;-83
2022/05/29 04:54:55;;;;;;;;;;;;;;;20.09;78.26;99106.00;4990660;28;20008;-82
2022/05/29 04:57:20;;;;;;;;;;;;;;;20.14;77.55;99108.38;5007900;28;19961;-82
2022/05/29 04:59:45;;;;;;;;;;;;;;;20.30;77.62;99105.59;5007259;28;19929;-83
2022/05/29 05:02:11;;;;;;;;;;;;;;;20.46;79.23;99109.00;4999434;28;19922;-83
2022/05/29 05:04:36;;;;;;;;;;;;;;;20.47;77.29;99109.88;4995655;28;19926;-82
2022/05/29 05:07:02;;;;;;;;;;;;;;;20.44;77.38;99121.63;4990078;28;19918;-82
2022/05/29 05:09:28;;;;;;;;;;;;;;;20.43;77.10;99119.91;5006837;28;20007;-82
2022/05/29 05:11:54;;;;;;;;;;;;;;;20.64;76.74;99114.97;4995654;28;19928;-84
2022/05/29 05:14:20;;;;;;;;;;;;;;;21.14;75.67;99104.53;5005804;28;20307;-82
2022/05/29 05:16:46;;;;;;;;;;;;;;;21.38;74.30;99112.72;4989136;28;20406;-83
2022/05/29 05:19:12;;;;;;;;;;;;;;;21.61;73.14;99110.28;4996262;28;20427;-83
2022/05/29 05:21:37;;;;;;;;;;;;;;;21.82;74.84;99113.28;4996476;28;19963;-84
2022/05/29 05:24:04;;;;;;;;;;;;;;;22.13;72.83;99122.69;5004868;28;19913;-83
2022/05/29 05:26:29;;;;;;;;;;;;;;;22.46;71.76;99121.25;5007492;28;19943;-83
2022/05/29 05:28:54;;;;;;;;;;;;;;;22.67;68.65;99134.06;4994059;28;20396;-83
2022/05/29 05:31:20;;;;;;;;;;;;;;;23.04;68.48;99136.69;4995653;28;19928;-83
2022/05/29 05:33:45;;;;;;;;;;;;;;;23.05;65.85;99157.25;5003547;28;20012;-82
2022/05/29 05:36:12;;;;;;;;;;;;;;;23.16;66.42;99157.31;5003828;28;19960;-83
2022/05/29 05:38:37;;;;;;;;;;;;;;;23.17;66.41;99158.16;5007506;28;19928;-84
2022/05/29 05:41:02;;;;;;;;;;;;;;;22.75;66.89;99160.38;4993617;28;19918;-84
2022/05/29 05:43:28;;;;;;;;;;;;;;;22.21;69.01;99138.25;4969862;28;19917;-83
2022/05/29 05:45:53;;;;;;;;;;;;;;;21.78;71.45;99134.13;4988150;28;19988;-86
2022/05/29 05:48:18;;;;;;;;;;;;;;;21.74;72.54;99139.81;5005587;28;19921;-84
2022/05/29 05:50:44;;;;;;;;;;;;;;;21.80;72.94;99142.06;5000600;28;19922;-83
2022/05/29 05:53:09;;;;;;;;;;;;;;;21.85;74.46;99141.75;4973593;28;20667;-83
2022/05/29 05:55:36;;;;;;;;;;;;;;;21.67;73.49;99136.69;4996232;28;19960;-84
2022/05/29 05:58:02;;;;;;;;;;;;;;;21.88;73.82;99133.47;5007282;28;19976;-83
2022/05/29 06:00:28;;;;;;;;;;;;;;;22.20;72.40;99141.03;4977658;28;20374;-84
2022/05/29 06:02:53;;;;;;;;;;;;;;;22.34;71.08;99135.59;4970741;28;19924;-84
2022/05/29 06:05:18;;;;;;;;;;;;;;;22.35;70.36;99132.78;4990914;28;19921;-84
2022/05/29 06:07:43;;;;;;;;;;;;;;;22.31;70.57;99141.19;5007814;28;19920;-84
2022/05/29 06:10:09;;;;;;;;;;;;;;;22.63;70.92;99149.59;4984467;28;20365;-85
2022/05/29 06:12:36;;;;;;;;;;;;;;;23.17;70.77;99150.09;4989803;28;19917;-85
2022/05/29 06:15:02;;;;;;;;;;;;;;;23.51;66.76;99140.31;5007570;28;19917;-85
2022/05/29 06:17:27;;;;;;;;;;;;;;;23.42;65.41;99139.19;5006651;28;19928;-85
2022/05/29 06:19:53;;;;;;;;;;;;;;;23.44;65.86;99138.22;5007909;28;19933;-87
2022/05/29 06:22:18;;;;;;;;;;;;;;;23.48;64.49;99139.66;5007709;28;20011;-85
2022/05/29 06:24:44;;;;;;;;;;;;;;;23.49;65.71;99134.16;5007006;28;20319;-86
2022/05/29 06:27:09;;;;;;;;;;;;;;;;;;5003841;28;19941;-84
2022/05/29 06:29:35;;;;;;;;;;;;;;;23.56;64.58;99121.97;4987978;28;19922;-84
2022/05/29 06:32:01;;;;;;;;;;;;;;;23.72;64.36;99101.91;4988217;28;19913;-84
2022/05/29 06:34:26;;;;;;;;;;;;;;;23.73;64.37;99114.41;4991347;28;19988;-83
2022/05/29 06:36:52;;;;;;;;;;;;;;;23.85;65.09;99117.97;5007456;28;20400;-83
2022/05/29 06:39:17;;;;;;;;;;;;;;;24.31;63.13;99115.16;5004776;28;20387;-87
2022/05/29 06:41:43;;;;;;;;;;;;;;;24.66;63.18;99106.03;4998723;28;19972;-83
2022/05/29 06:44:09;;;;;;;;;;;;;;;25.14;63.09;99104.72;4995274;28;19917;-85
2022/05/29 06:46:35;;;;;;;;;;;;;;;25.53;61.67;99117.66;4996069;28;19987;-87
2022/05/29 06:49:00;;;;;;;;;;;;;;;25.09;60.62;99122.31;5002603;28;19988;-87
2022/05/29 06:51:25;;;;;;;;;;;;;;;24.64;61.25;99124.19;4983857;28;19925;-87
2022/05/29 06:53:52;;;;;;;;;;;;;;;25.00;60.94;99122.09;4988307;28;19913;-87
2022/05/29 06:56:18;;;;;;;;;;;;;;;25.51;58.48;99112.41;4987778;28;20330;-88
2022/05/29 06:58:44;;;;;;;;;;;;;;;25.96;54.12;99115.78;4998611;28;20008;-88
2022/05/29 07:09:23;;;;;;;;;;;;;;;25.59;52.59;99117.13;4999759;28;19928;-88
2022/05/29 07:11:50;;;;;;;;;;;;;;;26.23;52.24;99115.22;5006850;28;19917;-87
2022/05/29 07:14:16;;;;;;;;;;;;;;;26.21;51.56;99112.66;5006885;28;19921;-86
2022/05/29 07:16:43;;;;;;;;;;;;;;;26.54;50.57;99105.16;5001907;28;19921;-86
2022/05/29 07:19:09;;;;;;;;;;;;;;;26.80;49.31;99113.63;5006468;28;19921;-86
2022/05/29 07:21:38;;;;;;;;;;;;;;;26.56;49.52;99107.75;5004984;28;19918;-87
2022/05/29 07:24:04;;;;;;;;;;;;;;;26.43;52.13;99106.16;4990963;28;20036;-87
2022/05/29 07:26:30;;;;;;;;;;;;;;;26.19;51.31;99101.09;4990990;28;20080;-86
2022/05/29 07:28:55;;;;;;;;;;;;;;;26.38;51.77;99102.97;4990782;28;19921;-86
2022/05/29 07:31:20;;;;;;;;;;;;;;;26.39;50.81;99099.31;4994581;28;20008;-86
2022/05/29 07:33:45;;;;;;;;;;;;;;;25.77;50.69;99095.78;5008092;28;19922;-88
2022/05/29 07:36:11;;;;;;;;;;;;;;;25.63;50.26;99096.16;4992021;28;19921;-89
2022/05/29 07:38:37;;;;;;;;;;;;;;;25.97;50.38;99095.88;5008228;28;19944;-86
2022/05/29 07:43:18;;;;;;;;;;;;;;;26.57;50.88;99095.91;4990774;28;20020;-88
2022/05/29 07:43:48;;;;;;;;;;;;;;;26.70;48.77;99096.53;4997319;28;19987;-89
2022/05/29 07:46:13;;;;;;;;;;;;;;;26.76;48.20;99078.91;5010748;28;20402;-89
2022/05/29 07:48:39;;;;;;;;;;;;;;;26.47;49.72;99079.69;5004899;28;19918;-87
2022/05/29 07:51:04;;;;;;;;;;;;;;;27.07;52.15;99084.16;4973043;28;19921;-87
2022/05/29 07:53:29;;;;;;;;;;;;;;;27.40;50.66;99079.28;4993645;28;20307;-89
2022/05/29 07:55:55;;;;;;;;;;;;;;;27.51;51.59;99074.56;4986536;28;19921;-87
2022/05/29 07:58:20;;;;;;;;;;;;;;;27.56;50.64;99068.72;5009690;28;19947;-83
2022/05/29 08:00:45;;;;;;;;;;;;;;;27.64;51.31;99070.69;5008408;28;19921;-83
2022/05/29 08:03:11;;;;;;;;;;;;;;;27.33;53.12;99073.63;4991643;28;19920;-84
2022/05/29 08:05:37;;;;;;;;;;;;;;;27.38;51.53;99081.31;4997367;28;19924;-83
2022/05/29 08:08:04;;;;;;;;;;;;;;;26.98;52.01;99075.88;4974806;28;19918;-83
2022/05/29 08:10:30;;;;;;;;;;;;;;;26.81;52.83;99076.59;4999223;28;19922;-83
2022/05/29 08:12:55;;;;;;;;;;;;;;;27.09;53.31;99069.47;4990379;28;19932;-84
2022/05/29 08:15:21;;;;;;;;;;;;;;;27.52;52.90;99057.31;4972692;28;19922;-85
2022/05/29 08:17:47;;;;;;;;;;;;;;;27.32;51.94;99070.03;4985275;28;19997;-83
2022/05/29 08:20:13;;;;;;;;;;;;;;;27.51;54.32;99071.88;4987825;28;19918;-84
2022/05/29 08:22:39;;;;;;;;;;;;;;;27.38;52.47;99071.31;4989355;28;19928;-82
2022/05/29 08:30:42;;;;;;;;;;;;;;;26.97;54.59;99051.69;4985991;28;19996;-82
2022/05/29 08:33:12;;;;;;;;;;;;;;;26.71;52.69;99051.41;4959795;28;19959;-83
2022/05/29 08:35:38;;;;;;;;;;;;;;;26.77;53.75;99046.28;4989401;28;19925;-83
2022/05/29 08:38:04;;;;;;;;;;;;;;;26.19;54.21;99055.16;4990314;28;19913;-85
2022/05/29 08:40:30;;;;;;;;;;;;;;;25.93;55.23;99046.66;5009262;28;19964;-85
2022/05/29 08:42:57;;;;;;;;;;;;;;;26.03;56.38;99046.72;4993750;28;19984;-86
2022/05/29 08:45:23;;;;;;;;;;;;;;;26.15;56.46;99047.44;5003462;28;19917;-82
2022/05/29 08:47:49;;;;;;;;;;;;;;;26.29;55.12;99044.38;4990242;28;19928;-85
2022/05/29 08:50:27;;;;;;;;;;;;;;;26.37;55.08;99047.22;5004182;28;19961;-86
2022/05/29 08:53:04;;;;;;;;;;;;;;;26.41;55.66;99045.09;5003714;28;19968;-85
2022/05/29 08:55:37;;;;;;;;;;;;;;;26.59;55.90;99046.09;5008479;28;20007;-85
2022/05/29 08:58:08;;;;;;;;;;;;;;;26.53;56.03;99035.00;5008929;28;19917;-84
2022/05/29 09:00:52;;;;;;;;;;;;;;;26.86;54.92;99028.31;4991167;28;20032;-83
2022/05/29 09:03:36;;;;;;;;;;;;;;;27.44;54.36;99027.41;5008374;28;20479;-83
2022/05/29 09:06:02;;;;;;;;;;;;;;;27.87;53.82;99028.66;5008615;28;20435;-84
2022/05/29 09:08:31;;;;;;;;;;;;;;;27.97;50.07;99020.50;5008564;28;19918;-84
2022/05/29 09:11:01;;;;;;;;;;;;;;;28.01;49.87;99018.38;5008562;28;20610;-84
2022/05/29 09:13:49;;;;;;;;;;;;;;;28.31;49.86;99000.88;5008390;28;20372;-84
2022/05/29 09:16:17;;;;;;;;;;;;;;;28.37;49.16;99002.13;4997386;28;19925;-84
2022/05/29 09:18:48;;;;;;;;;;;;;;;28.71;50.69;98996.03;5019594;28;20007;-84
2022/05/29 09:21:16;;;;;;;;;;;;;;;28.52;50.07;98986.19;5027947;28;19917;-84
2022/05/29 09:23:51;;;;;;;;;;;;;;;28.47;50.96;98985.78;5027649;28;19920;-84
2022/05/29 09:26:18;;;;;;;;;;;;;;;28.09;51.22;98976.94;5028215;28;20004;-87
2022/05/29 09:28:44;;;;;;;;;;;;;;;27.76;51.46;98976.50;5028008;28;19917;-85
2022/05/29 09:31:25;;;;;;;;;;;;;;;28.26;50.61;98959.84;5028123;28;20018;-85
2022/05/29 09:33:51;;;;;;;;;;;;;;;27.86;51.09;98967.31;5027081;28;20310;-85
2022/05/29 09:36:34;;;;;;;;;;;;;;;27.92;51.25;98956.91;5028122;28;19923;-85
2022/05/29 09:39:10;;;;;;;;;;;;;;;28.06;50.23;98956.41;5027856;28;20498;-84
2022/05/29 09:41:46;;;;;;;;;;;;;;;28.02;50.04;98958.59;5028397;28;19921;-85
2022/05/29 09:44:16;;;;;;;;;;;;;;;28.34;51.50;98954.47;5024771;28;20415;-84
2022/05/29 09:46:45;;;;;;;;;;;;;;;28.36;49.73;98951.63;5027533;28;19913;-85
2022/05/29 09:52:18;;;;;;;;;;;;;;;28.47;49.61;98943.25;5027937;28;19928;-86
2022/05/29 09:54:49;;;;;;;;;;;;;;;28.34;51.03;98943.63;5028143;28;19921;-86
2022/05/29 09:57:21;;;;;;;;;;;;;;;28.37;50.48;98927.06;5027466;28;20024;-86
2022/05/29 09:59:49;;;;;;;;;;;;;;;28.27;52.95;98929.00;5014812;28;20283;-85
2022/05/29 10:02:20;;;;;;;;;;;;;;;28.56;51.70;98922.47;5006155;28;19917;-85
2022/05/29 10:04:50;;;;;;;;;;;;;;;28.11;51.10;98908.00;5006330;28;19922;-85
2022/05/29 10:07:21;;;;;;;;;;;;;;;28.51;52.05;98909.38;5007785;28;20016;-86
2022/05/29 10:10:05;;;;;;;;;;;;;;;28.41;52.43;98905.91;5021530;28;19925;-85
2022/05/29 10:12:43;;;;;;;;;;;;;;;28.14;51.01;98907.69;5025098;28;20450;-84
2022/05/29 10:15:12;;;;;;;;;;;;;;;28.19;51.04;98883.69;5027573;28;19928;-85
2022/05/29 10:17:40;;;;;;;;;;;;;;;28.10;49.98;98876.50;5029630;28;19927;-85
2022/05/29 10:20:24;;;;;;;;;;;;;;;27.95;50.95;98884.31;5046906;28;19927;-86
2022/05/29 10:22:52;;;;;;;;;;;;;;;28.02;50.96;98881.81;5045646;28;19917;-86
2022/05/29 10:25:40;;;;;;;;;;;;;;;28.46;50.93;98879.16;5046961;28;19935;-85
2022/05/29 10:28:16;;;;;;;;;;;;;;;28.57;48.11;98872.63;5035437;28;19931;-86
2022/05/29 10:30:42;;;;;;;;;;;;;;;28.37;48.79;98850.28;5047207;28;19923;-85
2022/05/29 10:33:09;;;;;;;;;;;;;;;28.46;49.90;98837.66;5046601;28;19913;-84
2022/05/29 10:35:36;;;;;;;;;;;;;;;28.73;50.00;98833.94;5028476;28;20006;-85
2022/05/29 10:38:24;;;;;;;;;;;;;;;28.69;48.13;98829.88;5046818;28;19928;-86
2022/05/29 10:40:54;;;;;;;;;;;;;;;28.61;47.42;98813.50;5038555;28;19939;-84
2022/05/29 10:43:34;;;;;;;;;;;;;;;28.70;48.40;98809.84;5046511;28;19924;-84
2022/05/29 10:46:06;;;;;;;;;;;;;;;28.68;47.03;98799.16;5028814;28;19913;-84
2022/05/29 10:48:50;;;;;;;;;;;;;;;29.02;49.47;98802.88;5039786;28;19920;-88
2022/05/29 10:51:21;;;;;;;;;;;;;;;28.63;47.88;98803.38;5042948;28;19931;-89
2022/05/29 10:53:55;;;;;;;;;;;;;;;28.65;48.87;98795.91;5046605;28;19924;-89
2022/05/29 10:56:20;;;;;;;;;;;;;;;28.71;48.31;98792.56;5049824;28;19917;-85
2022/05/29 10:58:55;;;;;;;;;;;;;;;28.69;47.44;98781.03;5045621;28;19920;-88
2022/05/29 11:04:28;;;;;;;;;;;;;;;28.96;48.55;98752.81;5051284;28;20314;-88
2022/05/29 11:07:09;;;;;;;;;;;;;;;28.85;47.31;98758.53;5037203;28;19919;-86
2022/05/29 11:09:34;;;;;;;;;;;;;;;28.87;47.88;98751.94;5053267;28;19920;-84
2022/05/29 11:12:19;;;;;;;;;;;;;;;28.48;47.82;98759.69;5049341;28;20374;-86
2022/05/29 11:14:56;;;;;;;;;;;;;;;28.82;48.26;98745.28;5065434;28;20009;-85
2022/05/29 11:17:52;;;;;;;;;;;;;;;28.49;48.71;98739.69;5056048;28;19920;-87
2022/05/29 11:20:37;;;;;;;;;;;;;;;28.58;48.14;98733.28;4989989;28;19992;-85
2022/05/29 11:23:20;;;;;;;;;;;;;;;28.99;49.96;98733.47;5076236;28;19943;-88
2022/05/29 11:26:09;;;;;;;;;;;;;;;28.88;48.80;98729.19;5049517;28;19977;-88
2022/05/29 11:28:43;;;;;;;;;;;;;;;28.92;51.42;98697.19;5056057;28;19942;-88
2022/05/29 11:31:24;;;;;;;;;;;;;;;28.91;48.65;98707.16;5084779;28;19916;-88
2022/05/29 11:33:55;;;;;;;;;;;;;;;28.80;50.33;98709.34;5087567;28;19912;-91
2022/05/29 11:36:34;;;;;;;;;;;;;;;28.83;49.93;98698.16;5080177;28;19920;-89
2022/05/29 11:39:10;;;;;;;;;;;;;;;29.03;49.63;98704.16;5039419;28;19920;-89
2022/05/29 11:41:54;;;;;;;;;;;;;;;28.98;49.36;98696.50;5037029;28;19925;-88
2022/05/29 11:44:26;;;;;;;;;;;;;;;29.03;50.70;98694.16;5045927;28;19917;-88
2022/05/29 11:52:47;;;;;;;;;;;;;;;29.30;50.64;98675.88;5049275;28;19943;-87
2022/05/29 11:55:18;;;;;;;;;;;;;;;29.26;49.99;98671.84;5049791;28;19917;-86
2022/05/29 11:57:47;;;;;;;;;;;;;;;29.15;49.87;98664.81;5044873;28;20406;-85
2022/05/29 12:00:15;;;;;;;;;;;;;;;29.09;49.56;98663.63;5039884;28;20322;-84
2022/05/29 12:02:46;;;;;;;;;;;;;;;29.02;51.06;98664.44;5047900;28;19927;-86
2022/05/29 12:05:26;;;;;;;;;;;;;;;29.01;51.61;98658.19;5049455;28;19923;-85
2022/05/29 12:07:57;;;;;;;;;;;;;;;29.25;51.42;98657.38;5021109;28;20299;-84
2022/05/29 12:10:24;;;;;;;;;;;;;;;29.20;50.49;98650.78;5029169;28;20299;-84
2022/05/29 12:12:56;;;;;;;;;;;;;;;29.25;51.08;98656.53;5029595;28;20338;-88
2022/05/29 12:15:21;;;;;;;;;;;;;;;29.04;49.59;98654.28;5029480;28;19921;-84
2022/05/29 12:18:05;;;;;;;;;;;;;;;28.59;51.23;98634.66;5029462;28;19921;-85
2022/05/29 12:20:40;;;;;;;;;;;;;;;28.47;50.04;98619.66;5045461;28;19920;-86
2022/05/29 12:23:17;;;;;;;;;;;;;;;28.67;50.12;98614.84;5048433;28;19918;-85
2022/05/29 12:25:48;;;;;;;;;;;;;;;29.35;50.12;98589.34;5031054;28;19913;-86
2022/05/29 12:28:20;;;;;;;;;;;;;;;29.64;48.49;98599.69;5030143;28;19943;-86
2022/05/29 12:30:48;;;;;;;;;;;;;;;29.74;48.09;98594.06;5047847;28;19931;-84
2022/05/29 12:33:17;;;;;;;;;;;;;;;29.90;47.88;98595.91;5048466;28;19959;-86
2022/05/29 12:36:04;;;;;;;;;;;;;;;29.73;47.44;98594.22;5030855;28;20357;-85
2022/05/29 12:38:38;;;;;;;;;;;;;;;29.95;47.54;98590.81;5007542;28;20383;-87
2022/05/29 12:41:21;;;;;;;;;;;;;;;29.82;47.20;98585.91;5036672;28;19971;-85
2022/05/29 12:44:06;;;;;;;;;;;;;;;29.37;47.11;98553.88;5028693;28;19980;-85
2022/05/29 12:46:50;;;;;;;;;;;;;;;29.58;47.48;98562.34;5057703;28;19941;-86
2022/05/29 12:49:24;;;;;;;;;;;;;;;29.99;47.36;98564.13;5049809;28;19920;-86
2022/05/29 12:52:04;;;;;;;;;;;;;;;30.08;44.13;98559.50;5051711;28;19928;-87
2022/05/29 12:54:45;;;;;;;;;;;;;;;30.17;42.59;98539.44;5057077;28;19970;-87
2022/05/29 12:57:13;;;;;;;;;;;;;;;30.39;44.74;98531.50;5067264;28;20007;-88
2022/05/29 12:59:38;;;;;;;;;;;;;;;30.46;45.90;98538.78;5061957;28;19990;-88
2022/05/29 13:02:22;;;;;;;;;;;;;;;30.36;45.39;98536.25;5057456;28;19934;-86
2022/05/29 13:05:06;;;;;;;;;;;;;;;30.17;45.36;98518.50;5065476;28;20400;-87
2022/05/29 13:07:31;;;;;;;;;;;;;;;30.20;46.16;98532.75;5064775;28;19989;-87
2022/05/29 13:10:12;;;;;;;;;;;;;;;30.21;45.78;98535.31;5060124;28;20385;-88
2022/05/29 13:12:57;;;;;;;;;;;;;;;30.27;45.73;98525.59;5031413;28;19928;-86
2022/05/29 13:15:25;;;;;;;;;;;;;;;30.15;45.67;98531.44;5034704;28;19939;-87
2022/05/29 13:17:58;;;;;;;;;;;;;;;30.06;46.13;98529.78;5045174;28;19974;-88
2022/05/29 13:20:25;;;;;;;;;;;;;;;30.01;46.47;98491.38;5029677;28;20386;-86
2022/05/29 13:22:51;;;;;;;;;;;;;;;30.14;47.00;98479.97;5032694;28;19976;-86
2022/05/29 13:25:18;;;;;;;;;;;;;;;29.98;46.63;98491.75;5030666;28;19956;-86
2022/05/29 13:27:44;;;;;;;;;;;;;;;30.20;46.11;98479.25;5035813;28;19924;-88
2022/05/29 13:30:29;;;;;;;;;;;;;;;30.16;47.21;98480.63;5040169;28;20326;-88
2022/05/29 13:33:18;;;;;;;;;;;;;;;30.25;46.92;98470.56;5046188;28;20402;-87